Time;durP1;ratioP1;P1;durP2;ratioP2;P2;SDS_P1;SDS_P2;PMS_P1;PMS_P2;Temp;Humidity;BMP_temperature;BMP_pressure;BME280_temperature;BME280_humidity;BME280_pressure;Samples;Min_cycle;Max_cycle;Signal;HPM_P1;HPM_P2
2023/05/18 00:01:34;;;;;;;3.28;1.52;;;;;;;7.57;100.00;102854.13;10417721;28;20033;-69
2023/05/18 00:06:36;;;;;;;4.03;1.20;;;;;;;7.61;100.00;102854.63;10396987;28;20118;-69
2023/05/18 00:11:39;;;;;;;6.68;1.38;;;;;;;7.59;100.00;102857.53;10398572;28;20038;-69
2023/05/18 00:16:40;;;;;;;3.22;1.08;;;;;;;7.56;100.00;102859.78;10416857;28;20038;-68
2023/05/18 00:21:41;;;;;;;5.30;1.15;;;;;;;7.53;100.00;102865.66;10416849;28;20041;-69
2023/05/18 00:26:43;;;;;;;9.27;1.40;;;;;;;7.50;100.00;102864.13;10382055;28;20109;-70
2023/05/18 00:31:44;;;;;;;7.10;1.60;;;;;;;7.44;100.00;102864.84;10416026;28;20488;-69
2023/05/18 00:36:45;;;;;;;4.70;1.02;;;;;;;7.34;100.00;102854.16;10413868;28;20045;-69
2023/05/18 00:41:45;;;;;;;6.97;2.40;;;;;;;7.25;100.00;102869.81;10396556;28;20052;-69
2023/05/18 00:46:46;;;;;;;6.45;1.00;;;;;;;7.21;100.00;102871.25;10416010;28;20048;-69
2023/05/18 00:51:46;;;;;;;3.90;1.42;;;;;;;7.15;100.00;102866.50;10381843;28;20033;-69
2023/05/18 00:56:47;;;;;;;5.03;1.23;;;;;;;7.10;100.00;102865.31;10415516;28;20037;-69
2023/05/18 01:01:47;;;;;;;3.15;1.10;;;;;;;7.14;100.00;102858.44;10396891;28;20097;-68
2023/05/18 01:06:48;;;;;;;8.68;1.33;;;;;;;7.15;100.00;102861.00;10413105;28;20041;-69
2023/05/18 01:11:55;;;;;;;5.32;1.50;;;;;;;7.18;100.00;102865.25;10395540;28;20068;-68
2023/05/18 01:17:15;;;;;;;3.42;0.93;;;;;;;7.25;100.00;102860.75;10397365;28;20042;-68
2023/05/18 01:22:46;;;;;;;5.28;1.15;;;;;;;7.28;100.00;102874.09;10391056;28;20068;-68
2023/05/18 01:27:48;;;;;;;4.38;1.40;;;;;;;7.30;100.00;102869.28;10413112;28;20045;-69
2023/05/18 01:32:48;;;;;;;5.40;1.08;;;;;;;7.31;100.00;102870.97;10395712;28;20081;-69
2023/05/18 01:37:49;;;;;;;7.55;1.20;;;;;;;7.34;100.00;102869.75;10394843;28;20054;-68
2023/05/18 01:42:50;;;;;;;6.32;2.08;;;;;;;7.32;100.00;102869.94;10395491;28;20072;-69
2023/05/18 01:47:51;;;;;;;7.00;1.40;;;;;;;7.33;100.00;102874.38;10378371;28;20496;-68
2023/05/18 01:53:01;;;;;;;4.28;1.60;;;;;;;7.34;100.00;102861.53;10390378;28;20033;-69
2023/05/18 01:58:02;;;;;;;6.07;1.65;;;;;;;7.31;100.00;102864.66;10378766;28;20072;-68
2023/05/18 02:03:02;;;;;;;11.45;1.73;;;;;;;7.30;100.00;102872.00;10412799;28;20116;-69
2023/05/18 02:08:03;;;;;;;5.50;2.22;;;;;;;7.30;100.00;102862.91;10379218;28;20044;-69
2023/05/18 02:13:03;;;;;;;6.65;2.08;;;;;;;7.35;100.00;102875.03;10394874;28;20069;-68
2023/05/18 02:18:04;;;;;;;4.82;1.45;;;;;;;7.37;100.00;102862.00;10394541;28;20030;-70
2023/05/18 02:23:05;;;;;;;3.78;1.27;;;;;;;7.39;100.00;102870.91;10412398;28;20097;-69
2023/05/18 02:28:05;;;;;;;4.78;1.27;;;;;;;7.42;100.00;102872.41;10412299;28;20030;-68
2023/05/18 02:33:07;;;;;;;4.03;1.40;;;;;;;7.35;100.00;102861.34;10419767;28;20029;-69
2023/05/18 02:38:08;;;;;;;6.60;1.40;;;;;;;7.43;100.00;102868.66;10401735;28;20109;-69
2023/05/18 02:43:08;;;;;;;5.95;1.20;;;;;;;7.42;100.00;102866.94;10402473;28;20125;-68
2023/05/18 02:48:09;;;;;;;8.70;1.85;;;;;;;7.39;100.00;102870.91;10402869;28;20061;-69
2023/05/18 02:53:10;;;;;;;2.22;1.20;;;;;;;7.39;100.00;102881.88;10420137;28;20033;-69
2023/05/18 02:58:12;;;;;;;7.95;1.38;;;;;;;7.39;100.00;102872.78;10419626;28;20049;-69
2023/05/18 03:03:14;;;;;;;2.40;1.02;;;;;;;7.37;100.00;102870.22;10419751;28;20067;-69
2023/05/18 03:08:14;;;;;;;5.55;1.60;;;;;;;6.97;100.00;102814.75;10378108;28;20041;-68
2023/05/18 03:13:15;;;;;;;8.00;1.63;;;;;;;7.36;100.00;102868.53;10386715;28;20049;-68
2023/05/18 03:18:16;;;;;;;5.88;1.25;;;;;;;7.34;100.00;102876.09;10418029;28;20034;-69
2023/05/18 03:23:20;;;;;;;8.20;1.60;;;;;;;7.31;100.00;102867.38;10417263;28;20064;-68
2023/05/18 03:28:21;;;;;;;6.78;2.15;;;;;;;7.31;100.00;102876.44;10400761;28;20105;-69
2023/05/18 03:33:21;;;;;;;10.40;1.73;;;;;;;7.33;100.00;102873.53;10399002;28;20052;-68
2023/05/18 03:38:22;;;;;;;18.35;2.70;;;;;;;7.33;100.00;102868.06;10417766;28;20040;-69
2023/05/18 03:43:25;;;;;;;4.43;1.45;;;;;;;7.35;100.00;102880.53;10416808;28;20037;-68
2023/05/18 03:48:26;;;;;;;5.45;1.40;;;;;;;7.37;100.00;102881.19;10417962;28;20056;-69
2023/05/18 03:53:28;;;;;;;9.20;1.42;;;;;;;7.39;100.00;102872.78;10382858;28;20087;-69
2023/05/18 03:58:28;;;;;;;3.38;1.42;;;;;;;7.44;100.00;102876.69;10415555;28;20138;-69
2023/05/18 04:03:29;;;;;;;5.43;1.20;;;;;;;7.42;100.00;102865.06;10417469;28;20037;-69
2023/05/18 04:08:33;;;;;;;5.97;1.70;;;;;;;7.44;100.00;102873.97;10416335;28;20060;-68
2023/05/18 04:13:36;;;;;;;5.45;1.00;;;;;;;7.45;100.00;102881.13;10405425;28;20044;-68
2023/05/18 04:18:37;;;;;;;4.07;1.08;;;;;;;7.47;100.00;102883.69;10377660;28;20034;-69
2023/05/18 04:23:37;;;;;;;3.78;1.33;;;;;;;7.55;100.00;102888.25;10415368;28;20029;-70
2023/05/18 04:28:38;;;;;;;6.50;1.55;;;;;;;7.60;100.00;102891.28;10416019;28;20045;-69
2023/05/18 04:33:40;;;;;;;4.18;1.05;;;;;;;7.70;100.00;102902.84;10415227;28;20052;-69
2023/05/18 04:38:40;;;;;;;3.53;1.02;;;;;;;7.79;100.00;102901.75;10358372;28;20061;-69
2023/05/18 04:43:41;;;;;;;3.90;0.95;;;;;;;7.91;100.00;102904.03;10399136;28;20140;-68
2023/05/18 04:48:42;;;;;;;4.88;1.13;;;;;;;7.99;100.00;102917.66;10414304;28;20053;-69
2023/05/18 04:53:44;;;;;;;4.18;1.20;;;;;;;8.11;100.00;102920.78;10395841;28;20065;-69
2023/05/18 04:58:47;;;;;;;2.88;1.00;;;;;;;8.19;100.00;102913.31;10413710;28;20045;-69
2023/05/18 05:03:47;;;;;;;4.55;1.40;;;;;;;8.33;100.00;102919.00;10380168;28;20041;-69
2023/05/18 05:08:47;;;;;;;4.75;1.20;;;;;;;8.44;100.00;102916.66;10408472;28;20422;-69
2023/05/18 05:13:48;;;;;;;6.60;1.20;;;;;;;8.53;100.00;102914.66;10411533;28;20064;-68
2023/05/18 05:18:48;;;;;;;2.03;0.80;;;;;;;8.59;100.00;102913.91;10403177;28;20046;-69
2023/05/18 05:23:49;;;;;;;9.00;1.10;;;;;;;8.72;100.00;102917.84;10396098;28;20792;-68
2023/05/18 05:28:50;;;;;;;8.07;2.00;;;;;;;8.81;100.00;102913.97;10413008;28;20044;-70
2023/05/18 05:33:51;;;;;;;3.58;0.95;;;;;;;8.90;100.00;102912.81;10396161;28;20087;-68
2023/05/18 05:38:52;;;;;;;6.57;1.48;;;;;;;9.05;100.00;102910.88;10411693;28;20056;-69
2023/05/18 05:43:52;;;;;;;3.03;1.00;;;;;;;9.16;100.00;102908.66;10410552;28;20049;-69
2023/05/18 05:48:53;;;;;;;5.90;0.93;;;;;;;9.36;100.00;102914.34;10411969;28;20045;-69
2023/05/18 05:53:53;;;;;;;6.43;0.95;;;;;;;9.43;100.00;102916.13;10372575;28;20052;-69
2023/05/18 05:58:54;;;;;;;12.40;2.35;;;;;;;9.53;100.00;102924.06;10394001;28;20427;-69
2023/05/18 06:03:54;;;;;;;4.95;1.13;;;;;;;9.62;100.00;102919.25;10394582;28;20411;-69
2023/05/18 06:08:55;;;;;;;6.10;1.00;;;;;;;9.66;100.00;102926.91;10389876;28;20045;-69
2023/05/18 06:13:55;;;;;;;3.80;1.13;;;;;;;9.82;100.00;102924.94;10393877;28;20053;-69
2023/05/18 06:18:57;;;;;;;3.30;1.52;;;;;;;9.91;100.00;102923.72;10411339;28;20045;-67
2023/05/18 06:23:57;;;;;;;3.15;0.80;;;;;;;10.09;100.00;102926.00;10411083;28;20562;-67
2023/05/18 06:28:58;;;;;;;4.45;1.08;;;;;;;10.19;100.00;102920.97;10368874;28;20065;-69
2023/05/18 06:33:58;;;;;;;4.53;2.10;;;;;;;10.28;100.00;102930.75;10407587;28;20025;-68
2023/05/18 06:38:59;;;;;;;8.57;1.98;;;;;;;10.30;100.00;102923.19;10387046;28;20037;-68
2023/05/18 06:44:00;;;;;;;3.10;1.10;;;;;;;10.42;100.00;102939.16;10410314;28;20045;-68
2023/05/18 06:49:01;;;;;;;2.50;1.00;;;;;;;10.49;100.00;102931.78;10383241;28;20482;-69
2023/05/18 06:54:01;;;;;;;4.97;1.52;;;;;;;10.45;100.00;102924.97;10393331;28;20037;-68
2023/05/18 06:59:02;;;;;;;5.95;0.80;;;;;;;10.37;100.00;102927.88;10400319;28;20119;-69
2023/05/18 07:04:02;;;;;;;2.85;0.90;;;;;;;10.34;100.00;102925.56;10412292;28;20080;-69
2023/05/18 07:09:03;;;;;;;2.95;0.88;;;;;;;10.51;100.00;102929.66;10409481;28;20047;-69
2023/05/18 07:14:04;;;;;;;5.82;1.50;;;;;;;10.73;100.00;102932.28;10393591;28;20282;-69
2023/05/18 07:19:05;;;;;;;6.20;1.08;;;;;;;10.84;100.00;102915.19;10417671;28;20060;-68
2023/05/18 07:24:05;;;;;;;5.15;1.50;;;;;;;10.94;100.00;102923.91;10400918;28;20111;-68
2023/05/18 07:29:06;;;;;;;6.47;1.42;;;;;;;11.04;100.00;102935.41;10419226;28;20034;-67
2023/05/18 07:34:07;;;;;;;8.20;1.10;;;;;;;11.34;100.00;102935.06;10390187;28;21153;-68
2023/05/18 07:39:07;;;;;;;3.95;1.42;;;;;;;11.74;100.00;102932.34;10413632;28;20037;-69
2023/05/18 07:44:08;;;;;;;4.75;1.20;;;;;;;12.19;100.00;102932.53;10415885;28;20041;-68
2023/05/18 07:49:08;;;;;;;3.55;1.33;;;;;;;12.53;100.00;102927.81;10398311;28;20048;-70
2023/05/18 07:54:09;;;;;;;6.38;1.20;;;;;;;12.57;100.00;102890.38;10415744;28;20045;-69
2023/05/18 07:59:09;;;;;;;4.00;1.23;;;;;;;12.74;99.11;102912.00;10399171;28;20037;-68
2023/05/18 08:04:10;;;;;;;6.68;1.20;;;;;;;12.79;100.00;102923.25;10392585;28;20041;-69
2023/05/18 08:09:11;;;;;;;6.90;1.17;;;;;;;13.16;99.95;102916.03;10398939;28;20060;-69
2023/05/18 08:14:11;;;;;;;5.78;1.50;;;;;;;13.71;99.81;102923.78;10413856;28;20038;-69
2023/05/18 08:19:12;;;;;;;6.35;1.20;;;;;;;14.19;98.17;102912.03;10413742;28;20096;-69
2023/05/18 08:24:12;;;;;;;6.47;1.45;;;;;;;14.33;96.45;102909.97;10414339;28;20351;-69
2023/05/18 08:29:13;;;;;;;3.00;1.08;;;;;;;14.50;93.79;102907.44;10394157;28;20401;-68
2023/05/18 08:34:13;;;;;;;2.63;1.02;;;;;;;14.48;92.50;102907.66;10397589;28;20033;-68
2023/05/18 08:39:14;;;;;;;5.65;1.65;;;;;;;14.70;88.62;102902.53;10411888;28;20048;-68
2023/05/18 08:44:15;;;;;;;2.88;1.08;;;;;;;14.70;90.73;102905.31;10382748;28;20049;-69
2023/05/18 08:49:17;;;;;;;3.33;0.80;;;;;;;14.62;92.09;102902.84;10359355;28;20052;-69
2023/05/18 08:54:21;;;;;;;7.50;1.65;;;;;;;14.86;88.87;102897.41;10396456;28;20091;-69
2023/05/18 08:59:26;;;;;;;6.10;1.10;;;;;;;14.93;87.98;102882.38;10397334;28;20036;-69
2023/05/18 09:04:26;;;;;;;4.78;1.23;;;;;;;14.61;88.64;102892.81;10394853;28;20041;-69
2023/05/18 09:09:27;;;;;;;4.93;1.05;;;;;;;14.02;89.44;102903.47;10395159;28;20406;-69
2023/05/18 09:14:28;;;;;;;13.55;1.80;;;;;;;13.31;87.22;102888.09;10395803;28;20037;-69
2023/05/18 09:19:28;;;;;;;4.90;1.17;;;;;;;13.07;93.63;102907.16;10413323;28;20060;-69
2023/05/18 09:24:28;;;;;;;2.25;1.25;;;;;;;13.29;92.77;102906.81;10389915;28;20387;-68
2023/05/18 09:29:29;;;;;;;5.00;1.15;;;;;;;13.93;92.51;102899.28;10355843;28;20498;-68
2023/05/18 09:34:40;;;;;;;4.47;1.13;;;;;;;14.43;90.49;102903.91;10380335;28;20060;-69
2023/05/18 09:39:41;;;;;;;9.00;1.88;;;;;;;14.43;88.30;102881.75;10407858;28;20476;-69
2023/05/18 09:44:41;;;;;;;3.55;1.67;;;;;;;14.56;86.93;102884.38;10357287;28;20065;-69
2023/05/18 09:49:42;;;;;;;8.95;1.83;;;;;;;14.12;86.68;102866.94;10353598;28;20569;-69
2023/05/18 09:54:42;;;;;;;5.53;1.33;;;;;;;14.26;87.88;102876.81;10372182;28;20513;-69
2023/05/18 09:59:43;;;;;;;2.10;1.02;;;;;;;14.67;86.28;102872.50;10339169;28;20042;-69
2023/05/18 10:04:43;;;;;;;3.95;1.48;;;;;;;15.33;86.38;102872.63;10353204;28;20406;-70
2023/05/18 10:09:44;;;;;;;5.78;1.20;;;;;;;15.62;85.46;102867.25;10406584;28;20037;-69
2023/05/18 10:14:45;;;;;;;4.05;1.38;;;;;;;15.44;84.38;102860.72;10410534;28;20029;-71
2023/05/18 10:19:45;;;;;;;6.45;1.52;;;;;;;15.57;83.01;102865.19;10400708;28;21626;-70
2023/05/18 10:24:49;;;;;;;4.68;1.02;;;;;;;15.19;84.98;102855.31;10372521;28;20041;-70
2023/05/18 10:29:51;;;;;;;7.32;1.40;;;;;;;15.42;87.13;102873.97;10394020;28;20037;-69
2023/05/18 10:34:52;;;;;;;4.45;1.20;;;;;;;16.08;85.46;102857.25;10409563;28;20045;-72
2023/05/18 10:39:53;;;;;;;3.80;1.20;;;;;;;15.63;82.53;102863.41;10370746;28;20037;-70
2023/05/18 10:44:54;;;;;;;8.00;1.30;;;;;;;15.64;86.53;102865.91;10391527;28;20076;-70
2023/05/18 10:49:54;;;;;;;3.63;1.33;;;;;;;16.25;83.92;102847.09;10376762;28;20101;-69
2023/05/18 10:54:55;;;;;;;7.72;1.67;;;;;;;16.80;80.90;102844.84;10401924;28;20045;-70
2023/05/18 10:59:56;;;;;;;5.85;1.30;;;;;;;17.46;83.14;102851.66;10396555;28;20033;-71
2023/05/18 11:04:56;;;;;;;5.68;1.48;;;;;;;18.08;75.99;102835.91;10398220;28;20049;-70
2023/05/18 11:09:58;;;;;;;2.53;1.17;;;;;;;18.32;78.40;102831.78;10354089;28;20052;-71
2023/05/18 11:14:59;;;;;;;4.07;1.17;;;;;;;18.61;74.01;102820.41;10349650;28;20046;-71
2023/05/18 11:20:12;;;;;;;4.85;1.92;;;;;;;18.66;73.38;102819.63;10415955;28;20053;-70
2023/05/18 11:25:31;;;;;;;3.72;0.98;;;;;;;17.81;74.65;102822.69;10417765;28;20057;-72
2023/05/18 11:30:39;;;;;;;3.85;1.30;;;;;;;17.08;73.88;102828.19;10416616;28;20037;-73
2023/05/18 11:36:13;;;;;;;2.72;1.10;;;;;;;16.85;77.37;102836.66;10416611;28;20045;-72
2023/05/18 11:41:34;;;;;;;4.60;1.63;;;;;;;17.71;75.95;102820.59;10397470;28;20046;-72
2023/05/18 11:46:57;;;;;;;6.18;1.30;;;;;;;17.86;73.56;102813.56;10378536;28;20029;-72
2023/05/18 11:52:18;;;;;;;5.38;1.67;;;;;;;18.32;72.99;102806.69;10412785;28;20033;-72
2023/05/18 11:57:39;;;;;;;4.78;1.63;;;;;;;17.71;73.89;102816.94;10400087;28;20041;-72
2023/05/18 12:02:45;;;;;;;8.40;1.70;;;;;;;17.44;76.07;102823.22;10400346;28;20098;-72
2023/05/18 12:07:46;;;;;;;5.00;1.92;;;;;;;18.40;76.81;102819.34;10336497;28;20038;-72
2023/05/18 12:12:48;;;;;;;5.30;1.60;;;;;;;19.82;73.95;102787.44;10341992;28;20026;-72
2023/05/18 12:17:49;;;;;;;5.07;1.13;;;;;;;20.05;68.90;102783.41;10394437;28;20611;-73
2023/05/18 12:22:52;;;;;;;5.38;1.40;;;;;;;20.24;72.68;102794.94;10414338;28;20049;-73
2023/05/18 12:27:53;;;;;;;7.20;1.45;;;;;;;20.12;70.83;102783.16;10411826;28;20394;-72
2023/05/18 12:32:54;;;;;;;6.38;1.15;;;;;;;19.02;67.68;102775.41;10383027;28;20057;-72
2023/05/18 12:37:58;;;;;;;4.15;1.20;;;;;;;19.05;74.44;102803.59;10399025;28;20064;-72
2023/05/18 12:42:59;;;;;;;5.78;1.67;;;;;;;19.14;73.81;102790.00;10415513;28;20041;-72
2023/05/18 12:48:07;;;;;;;6.10;1.95;;;;;;;19.83;72.33;102780.75;10397422;28;20096;-73
2023/05/18 12:53:07;;;;;;;3.17;1.50;;;;;;;19.59;74.22;102785.03;10397575;28;20044;-72
2023/05/18 12:58:16;;;;;;;5.63;1.90;;;;;;;19.65;74.71;102795.13;10415160;28;20046;-73
2023/05/18 13:03:18;;;;;;;6.82;1.20;;;;;;;20.44;70.84;102773.75;10416076;28;20521;-73
2023/05/18 13:08:20;;;;;;;4.03;1.30;;;;;;;20.39;70.56;102771.78;10396600;28;20244;-73
2023/05/18 13:13:20;;;;;;;4.03;1.25;;;;;;;20.64;69.59;102757.03;10413872;28;20077;-73
2023/05/18 13:18:21;;;;;;;6.28;1.45;;;;;;;21.30;68.70;102756.22;10380575;28;20505;-73
2023/05/18 13:23:28;;;;;;;5.35;1.40;;;;;;;20.44;69.04;102756.94;10395121;28;20549;-72
2023/05/18 13:28:29;;;;;;;6.40;1.83;;;;;;;18.60;73.05;102762.09;10379562;28;20052;-72
2023/05/18 13:33:29;;;;;;;4.65;1.40;;;;;;;18.10;73.11;102758.44;10378314;28;20417;-72
2023/05/18 13:38:34;;;;;;;4.80;1.17;;;;;;;18.62;70.84;102752.34;10414016;28;20038;-72
2023/05/18 13:43:34;;;;;;;5.05;1.40;;;;;;;19.32;70.85;102752.44;10413359;28;20041;-72
2023/05/18 13:48:35;;;;;;;3.47;1.30;;;;;;;19.91;69.50;102727.13;10411618;28;20064;-73
2023/05/18 13:53:35;;;;;;;2.80;1.30;;;;;;;20.19;67.74;102726.97;10412001;28;20034;-70
2023/05/18 13:58:36;;;;;;;5.85;1.38;;;;;;;20.35;70.24;102723.91;10412406;28;20034;-78
2023/05/18 14:03:36;;;;;;;4.95;1.75;;;;;;;19.47;69.78;102721.84;10393568;28;20037;-72
2023/05/18 14:08:36;;;;;;;3.80;0.90;;;;;;;20.51;68.47;102713.63;10365691;28;20033;-69
2023/05/18 14:13:37;;;;;;;10.88;2.28;;;;;;;20.31;67.03;102707.97;10411418;28;20029;-73
2023/05/18 14:18:37;;;;;;;5.60;1.02;;;;;;;19.73;68.06;102714.47;10361679;28;20038;-71
2023/05/18 14:23:38;;;;;;;5.85;0.98;;;;;;;19.49;70.60;102718.75;10394490;28;20038;-68
2023/05/18 14:28:38;;;;;;;4.63;1.52;;;;;;;20.04;68.56;102700.63;10418554;28;20053;-68
2023/05/18 14:33:39;;;;;;;3.20;0.98;;;;;;;20.16;69.80;102711.56;10403570;28;20040;-70
2023/05/18 14:38:40;;;;;;;5.45;1.20;;;;;;;21.07;67.38;102696.03;10419641;28;20037;-74
2023/05/18 14:43:41;;;;;;;3.60;1.13;;;;;;;20.51;66.48;102679.22;10370058;28;20044;-73
2023/05/18 14:48:41;;;;;;;4.28;1.30;;;;;;;19.77;70.06;102708.34;10386314;28;20044;-73
2023/05/18 14:53:42;;;;;;;3.38;1.50;;;;;;;20.27;70.91;102702.09;10402432;28;20061;-76
2023/05/18 14:58:42;;;;;;;5.35;1.40;;;;;;;19.77;67.88;102708.34;10385696;28;20037;-74
2023/05/18 15:03:43;;;;;;;3.30;0.90;;;;;;;19.04;71.25;102707.03;10386429;28;20053;-77
2023/05/18 15:08:44;;;;;;;5.38;1.60;;;;;;;18.84;70.46;102709.63;10418270;28;20040;-73
2023/05/18 15:13:45;;;;;;;6.53;0.95;;;;;;;18.93;71.58;102705.25;10418058;28;20057;-68
2023/05/18 15:18:45;;;;;;;3.38;0.90;;;;;;;19.23;70.44;102693.47;10418488;28;20033;-74
2023/05/18 15:23:46;;;;;;;5.38;1.75;;;;;;;19.34;69.48;102699.97;10418976;28;20038;-75
2023/05/18 15:28:46;;;;;;;4.20;0.90;;;;;;;19.01;68.83;102695.53;10401245;28;20048;-69
2023/05/18 15:33:47;;;;;;;4.10;1.58;;;;;;;18.62;70.20;102704.94;10418902;28;20054;-75
2023/05/18 15:38:47;;;;;;;4.40;1.20;;;;;;;18.13;70.00;102696.63;10416168;28;20048;-77
2023/05/18 15:43:48;;;;;;;3.92;1.30;;;;;;;18.15;71.04;102694.41;10399238;28;20135;-73
2023/05/18 15:48:48;;;;;;;5.35;1.33;;;;;;;18.27;68.53;102681.19;10398543;28;20046;-71
2023/05/18 15:53:49;;;;;;;4.65;0.93;;;;;;;18.88;68.92;102675.34;10399726;28;20033;-71
2023/05/18 15:58:49;;;;;;;6.80;1.42;;;;;;;19.02;67.60;102628.28;10399907;28;20037;-74
2023/05/18 16:03:50;;;;;;;5.97;1.40;;;;;;;19.21;68.22;102623.09;10400295;28;20049;-72
2023/05/18 16:08:50;;;;;;;3.22;1.10;;;;;;;20.40;66.86;102683.09;10414620;28;20435;-68
2023/05/18 16:13:54;;;;;;;6.97;1.38;;;;;;;20.20;63.77;102670.75;10379605;28;20053;-73
2023/05/18 16:18:54;;;;;;;4.80;0.95;;;;;;;20.85;66.33;102673.91;10416192;28;20118;-71
2023/05/18 16:23:55;;;;;;;6.05;1.45;;;;;;;21.18;64.22;102666.03;10416408;28;20109;-77
2023/05/18 16:28:55;;;;;;;4.25;1.23;;;;;;;21.41;64.06;102667.38;10398819;28;20044;-73
2023/05/18 16:33:56;;;;;;;5.43;1.40;;;;;;;20.95;63.01;102656.28;10379707;28;20038;-72
2023/05/18 16:38:57;;;;;;;3.92;1.27;;;;;;;20.45;63.33;102669.13;10412600;28;20466;-66
2023/05/18 16:43:57;;;;;;;6.63;1.40;;;;;;;19.85;66.35;102669.53;10414365;28;20132;-69
2023/05/18 16:48:57;;;;;;;4.85;0.88;;;;;;;20.58;64.85;102668.59;10396085;28;20045;-73
2023/05/18 16:53:58;;;;;;;3.03;1.27;;;;;;;20.34;65.42;102669.09;10362583;28;20079;-73
2023/05/18 16:58:58;;;;;;;3.45;1.00;;;;;;;18.98;66.97;102685.75;10414071;28;20038;-70
2023/05/18 17:03:59;;;;;;;2.47;1.02;;;;;;;18.35;70.01;102703.00;10397319;28;20046;-70
2023/05/18 17:08:59;;;;;;;5.53;1.00;;;;;;;17.81;70.54;102696.47;10395742;28;20071;-74
2023/05/18 17:14:00;;;;;;;4.32;1.13;;;;;;;18.54;68.11;102674.72;10395446;28;20038;-73
2023/05/18 17:19:00;;;;;;;5.38;2.03;;;;;;;18.54;70.48;102697.91;10358591;28;20083;-81
2023/05/18 17:24:01;;;;;;;5.82;1.50;;;;;;;18.55;68.07;102690.38;10377775;28;20060;-71
2023/05/18 17:29:01;;;;;;;5.40;1.05;;;;;;;17.63;71.27;102700.41;10413008;28;20044;-71
2023/05/18 17:34:02;;;;;;;3.38;1.20;;;;;;;16.63;72.76;102709.38;10368284;28;20388;-70
2023/05/18 17:39:03;;;;;;;7.53;1.83;;;;;;;15.66;76.17;102719.34;10394763;28;20045;-71
2023/05/18 17:44:03;;;;;;;7.75;1.40;;;;;;;14.81;79.46;102722.59;10394373;28;20046;-70
2023/05/18 17:49:04;;;;;;;4.43;1.13;;;;;;;14.11;82.04;102729.53;10411519;28;20348;-69
2023/05/18 17:54:05;;;;;;;5.28;1.40;;;;;;;13.60;84.13;102739.06;10394047;28;20038;-69
2023/05/18 17:59:05;;;;;;;3.28;1.60;;;;;;;13.23;87.31;102734.31;10378350;28;20037;-70
2023/05/18 18:04:06;;;;;;;6.00;1.15;;;;;;;13.15;89.76;102742.00;10377867;28;20076;-70
2023/05/18 18:09:06;;;;;;;4.00;1.50;;;;;;;13.03;93.26;102751.06;10411962;28;20025;-70
2023/05/18 18:14:07;;;;;;;8.73;1.75;;;;;;;12.94;97.50;102744.13;10393680;28;20033;-70
2023/05/18 18:19:09;;;;;;;4.50;1.33;;;;;;;12.87;99.72;102752.44;10377818;28;20044;-68
2023/05/18 18:24:09;;;;;;;7.80;1.55;;;;;;;12.66;100.00;102744.53;10411192;28;20044;-69
2023/05/18 18:29:10;;;;;;;5.75;1.40;;;;;;;12.41;100.00;102737.03;10394661;28;20046;-69
2023/05/18 18:34:10;;;;;;;3.67;1.30;;;;;;;12.25;100.00;102754.09;10394344;28;20037;-69
2023/05/18 18:39:12;;;;;;;6.75;1.60;;;;;;;12.01;100.00;102764.81;10392806;28;20037;-69
2023/05/18 18:44:12;;;;;;;4.05;1.30;;;;;;;11.77;100.00;102768.25;10392609;28;20103;-70
2023/05/18 18:49:13;;;;;;;5.65;1.83;;;;;;;11.61;100.00;102775.09;10411060;28;20029;-69
2023/05/18 18:54:13;;;;;;;5.93;1.30;;;;;;;11.39;100.00;102780.84;10410335;28;20034;-70
2023/05/18 18:59:14;;;;;;;4.82;2.00;;;;;;;11.25;100.00;102781.91;10411941;28;20034;-69
2023/05/18 19:04:14;;;;;;;9.45;1.60;;;;;;;11.08;100.00;102792.50;10373176;28;20270;-69
2023/05/18 19:09:15;;;;;;;4.68;1.35;;;;;;;10.88;100.00;102792.47;10410267;28;20069;-69
2023/05/18 19:14:15;;;;;;;5.90;1.52;;;;;;;10.76;100.00;102794.16;10416304;28;20041;-68
2023/05/18 19:19:16;;;;;;;4.32;1.30;;;;;;;10.66;100.00;102794.53;10418364;28;20637;-69
2023/05/18 19:24:16;;;;;;;7.13;1.70;;;;;;;10.50;100.00;102802.13;10417962;28;20084;-69
2023/05/18 19:29:17;;;;;;;7.65;2.58;;;;;;;10.40;100.00;102806.34;10417990;28;20041;-68
2023/05/18 19:34:18;;;;;;;6.03;2.22;;;;;;;10.20;100.00;102789.69;10417656;28;20070;-69
2023/05/18 19:39:18;;;;;;;5.30;1.63;;;;;;;10.16;100.00;102816.78;10370920;28;20044;-69
2023/05/18 19:44:19;;;;;;;3.58;1.52;;;;;;;10.01;100.00;102822.41;10396635;28;20054;-69
2023/05/18 19:49:20;;;;;;;10.48;3.20;;;;;;;9.93;100.00;102832.75;10415581;28;20037;-69
2023/05/18 19:54:20;;;;;;;5.93;1.42;;;;;;;9.83;100.00;102844.94;10416276;28;20562;-68
2023/05/18 19:59:24;;;;;;;10.48;2.05;;;;;;;9.72;100.00;102842.75;10398757;28;20037;-69
2023/05/18 20:04:26;;;;;;;10.35;2.33;;;;;;;9.62;100.00;102834.00;10381387;28;20072;-70
2023/05/18 20:09:27;;;;;;;5.82;2.15;;;;;;;9.37;100.00;102806.94;10414965;28;20037;-69
2023/05/18 20:14:29;;;;;;;7.28;2.15;;;;;;;9.48;100.00;102844.03;10413777;28;20642;-70
2023/05/18 20:19:31;;;;;;;5.78;2.13;;;;;;;9.42;100.00;102851.19;10396393;28;20532;-70
2023/05/18 20:24:31;;;;;;;8.63;2.00;;;;;;;9.34;100.00;102842.22;10414052;28;20041;-69
2023/05/18 20:29:32;;;;;;;4.28;2.03;;;;;;;9.28;100.00;102843.84;10398064;28;20053;-69
2023/05/18 20:34:33;;;;;;;6.40;2.17;;;;;;;9.23;100.00;102843.63;10414730;28;20043;-70
2023/05/18 20:39:33;;;;;;;10.48;1.90;;;;;;;9.06;100.00;102826.56;10395832;28;20042;-71
2023/05/18 20:44:36;;;;;;;4.00;1.45;;;;;;;9.08;100.00;102847.28;10380022;28;20037;-70
2023/05/18 20:49:37;;;;;;;6.20;2.03;;;;;;;8.91;100.00;102833.97;10413729;28;20036;-70
2023/05/18 20:54:37;;;;;;;15.32;3.30;;;;;;;8.98;100.00;102863.25;10403803;28;20030;-69
2023/05/18 20:59:38;;;;;;;8.18;2.83;;;;;;;8.92;100.00;102868.66;10387495;28;20026;-70
2023/05/18 21:04:38;;;;;;;7.93;2.58;;;;;;;8.86;100.00;102868.38;10395645;28;20037;-70
2023/05/18 21:09:39;;;;;;;4.03;2.00;;;;;;;8.82;100.00;102868.97;10412569;28;20049;-70
2023/05/18 21:14:39;;;;;;;5.68;2.30;;;;;;;8.73;100.00;102862.75;10413138;28;20107;-69
2023/05/18 21:19:40;;;;;;;7.35;2.78;;;;;;;8.66;100.00;102859.94;10411643;28;20520;-70
2023/05/18 21:24:41;;;;;;;7.22;2.25;;;;;;;8.56;100.00;102859.38;10395854;28;20061;-69
2023/05/18 21:29:41;;;;;;;6.40;2.30;;;;;;;8.52;100.00;102857.22;10394804;28;20084;-67
2023/05/18 21:34:42;;;;;;;9.82;3.03;;;;;;;8.49;100.00;102858.44;10394415;28;20033;-70
2023/05/18 21:39:42;;;;;;;8.63;3.00;;;;;;;8.42;100.00;102857.50;10393399;28;20041;-70
2023/05/18 21:44:43;;;;;;;8.02;3.60;;;;;;;8.37;100.00;102866.28;10393441;28;20494;-70
2023/05/18 21:49:43;;;;;;;13.98;2.97;;;;;;;8.36;100.00;102863.72;10393471;28;20453;-70
2023/05/18 21:54:44;;;;;;;11.90;3.15;;;;;;;8.35;100.00;102864.75;10412153;28;20033;-70
2023/05/18 21:59:44;;;;;;;8.13;3.63;;;;;;;8.28;100.00;102868.25;10411978;28;20045;-71
2023/05/18 22:04:45;;;;;;;10.80;3.50;;;;;;;8.26;100.00;102869.50;10410487;28;20061;-72
2023/05/18 22:09:45;;;;;;;13.27;4.30;;;;;;;8.21;100.00;102870.09;10410052;28;20048;-69
2023/05/18 22:14:46;;;;;;;16.65;4.03;;;;;;;8.17;100.00;102868.75;10393540;28;20038;-71
2023/05/18 22:19:47;;;;;;;8.88;3.50;;;;;;;8.17;100.00;102881.63;10411307;28;20045;-71
2023/05/18 22:24:47;;;;;;;6.18;3.00;;;;;;;8.12;100.00;102875.84;10394059;28;20099;-69
2023/05/18 22:29:48;;;;;;;8.63;3.28;;;;;;;8.12;100.00;102873.94;10412185;28;20041;-70
2023/05/18 22:34:48;;;;;;;8.45;3.08;;;;;;;8.05;100.00;102867.53;10410887;28;20033;-70
2023/05/18 22:39:49;;;;;;;10.52;4.28;;;;;;;7.94;100.00;102859.75;10410906;28;20048;-69
2023/05/18 22:44:50;;;;;;;10.13;3.25;;;;;;;7.92;100.00;102850.84;10392609;28;20109;-69
2023/05/18 22:49:50;;;;;;;8.98;3.45;;;;;;;8.01;100.00;102871.69;10417294;28;20048;-69
2023/05/18 22:54:51;;;;;;;8.00;3.13;;;;;;;7.96;100.00;102872.25;10403025;28;20053;-69
2023/05/18 22:59:51;;;;;;;14.52;4.93;;;;;;;7.93;100.00;102864.38;10418049;28;20039;-69